createdAt,value
2023-04-20T00:01:12.696Z,9.30
2023-04-20T00:03:41.350Z,9.10
2023-04-20T00:06:09.497Z,9.50
2023-04-20T00:08:37.499Z,9.30
2023-04-20T00:11:05.508Z,9.70
2023-04-20T00:13:33.602Z,9.90
2023-04-20T00:16:01.519Z,9.20
2023-04-20T00:18:29.447Z,9.80
2023-04-20T00:20:57.505Z,15.30
2023-04-20T00:23:25.583Z,16.60
2023-04-20T00:25:54.656Z,16.00
2023-04-20T00:28:22.624Z,15.50
2023-04-20T00:30:50.629Z,14.60
2023-04-20T00:33:19.190Z,13.50
2023-04-20T00:35:47.194Z,13.80
2023-04-20T00:38:15.242Z,13.70
2023-04-20T00:40:44.558Z,14.20
2023-04-20T00:43:14.083Z,14.30
2023-04-20T00:45:42.140Z,14.10
2023-04-20T00:48:11.463Z,14.00
2023-04-20T00:50:40.932Z,14.50
2023-04-20T00:53:09.301Z,12.70
2023-04-20T00:55:38.420Z,12.40
2023-04-20T00:58:06.944Z,12.40
2023-04-20T01:00:35.249Z,12.60
2023-04-20T01:03:03.395Z,12.10
2023-04-20T01:05:32.208Z,11.70
2023-04-20T01:08:00.202Z,11.80
2023-04-20T01:10:30.712Z,10.40
2023-04-20T01:12:58.937Z,10.60
2023-04-20T01:15:27.076Z,10.50
2023-04-20T01:17:55.048Z,9.90
2023-04-20T01:20:23.903Z,10.40
2023-04-20T01:22:54.375Z,10.50
2023-04-20T01:25:23.464Z,9.70
2023-04-20T01:27:51.503Z,9.20
2023-04-20T01:30:19.445Z,9.60
2023-04-20T01:32:47.553Z,9.10
2023-04-20T01:35:16.378Z,9.20
2023-04-20T01:37:46.285Z,9.50
2023-04-20T01:40:15.029Z,9.40
2023-04-20T01:42:43.047Z,9.40
2023-04-20T01:45:11.300Z,9.50
2023-04-20T01:47:39.371Z,9.40
2023-04-20T01:50:08.633Z,9.30
2023-04-20T01:52:36.752Z,9.60
2023-04-20T01:55:05.078Z,9.10
2023-04-20T01:57:33.141Z,9.20
2023-04-20T02:00:01.218Z,9.10
2023-04-20T02:02:29.340Z,9.00
2023-04-20T02:04:57.518Z,9.40
2023-04-20T02:07:25.554Z,9.20
2023-04-20T02:09:53.499Z,9.40
2023-04-20T02:12:21.461Z,9.30
2023-04-20T02:14:49.407Z,9.10
2023-04-20T02:17:18.369Z,9.50
2023-04-20T02:19:47.129Z,9.40
2023-04-20T02:22:15.098Z,9.50
2023-04-20T02:24:43.897Z,9.60
2023-04-20T02:27:11.841Z,9.30
2023-04-20T02:29:41.571Z,9.70
2023-04-20T02:32:09.610Z,9.60
2023-04-20T02:34:37.542Z,9.50
2023-04-20T02:37:05.465Z,9.40
2023-04-20T02:39:35.867Z,8.80
2023-04-20T02:42:03.881Z,9.10
2023-04-20T02:44:32.413Z,9.60
2023-04-20T02:47:00.598Z,9.20
2023-04-20T02:49:28.527Z,9.10
2023-04-20T02:51:56.453Z,9.50
2023-04-20T02:54:24.368Z,9.70
2023-04-20T02:56:52.363Z,9.60
2023-04-20T02:59:20.381Z,9.40
2023-04-20T03:02:00.452Z,9.50
2023-04-20T03:04:28.765Z,8.80
2023-04-20T03:07:05.001Z,9.70
2023-04-20T03:09:35.642Z,9.20
2023-04-20T03:12:17.600Z,9.10
2023-04-20T03:15:07.591Z,8.80
2023-04-20T03:18:02.038Z,9.60
2023-04-20T03:20:31.060Z,9.50
2023-04-20T03:22:59.265Z,9.30
2023-04-20T03:25:28.409Z,9.20
2023-04-20T03:27:59.907Z,9.20
2023-04-20T03:30:28.261Z,9.30
2023-04-20T03:33:04.337Z,9.10
2023-04-20T03:35:32.960Z,9.20
2023-04-20T03:38:01.454Z,9.00
2023-04-20T03:40:29.985Z,9.00
2023-04-20T03:42:58.102Z,9.30
2023-04-20T03:45:26.214Z,9.60
2023-04-20T03:47:54.426Z,9.00
2023-04-20T03:50:22.891Z,9.30
2023-04-20T03:52:50.834Z,9.00
2023-04-20T03:55:18.953Z,9.00
2023-04-20T03:57:51.325Z,9.40
2023-04-20T04:00:19.658Z,9.10
2023-04-20T04:02:47.814Z,9.10
2023-04-20T04:05:20.394Z,8.80
2023-04-20T04:07:50.529Z,9.10
2023-04-20T04:10:19.258Z,9.00
2023-04-20T04:12:47.347Z,8.60
2023-04-20T04:15:15.448Z,9.30
2023-04-20T04:17:50.119Z,8.90
2023-04-20T04:20:18.564Z,9.50
2023-04-20T04:22:47.274Z,9.80
2023-04-20T04:25:39.572Z,9.40
2023-04-20T04:28:08.010Z,9.20
2023-04-20T04:30:37.469Z,9.70
2023-04-20T04:33:07.558Z,10.80
2023-04-20T04:35:36.475Z,10.60
2023-04-20T04:38:04.536Z,10.60
2023-04-20T04:40:33.783Z,10.30
2023-04-20T04:43:04.215Z,9.40
2023-04-20T04:45:32.462Z,10.10
2023-04-20T04:48:00.678Z,9.00
2023-04-20T04:50:28.908Z,9.90
2023-04-20T04:52:56.925Z,9.30
2023-04-20T04:55:24.854Z,11.00
2023-04-20T04:57:52.772Z,9.10
2023-04-20T05:00:20.826Z,9.00
2023-04-20T05:02:48.895Z,8.60
2023-04-20T05:05:16.983Z,8.70
2023-04-20T05:07:44.976Z,8.00
2023-04-20T05:10:14.729Z,8.40
2023-04-20T05:12:43.252Z,7.80
2023-04-20T05:15:11.412Z,8.30
2023-04-20T05:17:39.390Z,8.00
2023-04-20T05:20:10.600Z,7.80
2023-04-20T05:22:38.670Z,8.30
2023-04-20T05:25:07.083Z,8.60
2023-04-20T05:27:35.293Z,7.70
2023-04-20T05:30:17.126Z,7.60
2023-04-20T05:32:50.947Z,7.70
2023-04-20T05:35:20.687Z,7.90
2023-04-20T05:37:49.364Z,8.40
2023-04-20T05:40:17.437Z,8.00
2023-04-20T05:42:45.444Z,8.30
2023-04-20T05:45:13.411Z,7.50
2023-04-20T05:47:41.521Z,7.30
2023-04-20T05:50:10.069Z,7.20
2023-04-20T05:52:38.228Z,7.10
2023-04-20T05:55:07.051Z,7.70
2023-04-20T05:57:35.095Z,7.70
2023-04-20T06:00:04.078Z,6.90
2023-04-20T06:02:41.606Z,7.30
2023-04-20T06:05:11.290Z,8.90
2023-04-20T06:07:40.521Z,8.20
2023-04-20T06:10:09.122Z,8.60
2023-04-20T06:12:37.252Z,9.40
2023-04-20T06:15:10.993Z,7.50
2023-04-20T06:17:41.050Z,7.10
2023-04-20T06:20:10.679Z,7.10
2023-04-20T06:22:44.524Z,7.40
2023-04-20T06:25:13.713Z,7.10
2023-04-20T06:27:42.333Z,7.20
2023-04-20T06:30:11.115Z,7.40
2023-04-20T06:32:39.250Z,6.90
2023-04-20T06:35:07.553Z,7.10
2023-04-20T06:37:36.724Z,7.10
2023-04-20T06:40:08.840Z,6.90
2023-04-20T06:42:37.580Z,7.40
2023-04-20T06:45:06.950Z,7.30
2023-04-20T06:47:35.650Z,7.20
2023-04-20T06:50:09.595Z,7.40
2023-04-20T06:52:39.403Z,7.10
2023-04-20T06:55:08.557Z,7.80
2023-04-20T06:57:38.812Z,7.10
2023-04-20T07:00:11.455Z,7.90
2023-04-20T07:02:47.042Z,7.60
2023-04-20T07:05:16.574Z,7.30
2023-04-20T07:07:44.977Z,8.30
2023-04-20T07:10:14.664Z,8.60
2023-04-20T07:12:43.945Z,7.70
2023-04-20T07:15:12.990Z,7.60
2023-04-20T07:17:41.133Z,7.10
2023-04-20T07:20:09.584Z,7.30
2023-04-20T07:22:38.920Z,7.60
2023-04-20T07:25:09.122Z,7.90
2023-04-20T07:27:39.033Z,8.00
2023-04-20T07:30:08.991Z,8.00
2023-04-20T07:32:38.533Z,7.60
2023-04-20T07:35:07.168Z,7.50
2023-04-20T07:37:35.164Z,7.50
2023-04-20T07:40:06.673Z,7.60
2023-04-20T07:42:37.161Z,8.30
2023-04-20T07:45:09.502Z,7.90
2023-04-20T07:47:38.123Z,7.80
2023-04-20T07:50:07.423Z,7.70
2023-04-20T07:52:35.901Z,7.60
2023-04-20T07:55:05.163Z,8.20
2023-04-20T07:57:34.970Z,8.10
2023-04-20T08:00:05.775Z,7.30
2023-04-20T08:02:41.201Z,7.80
2023-04-20T08:05:12.653Z,7.70
2023-04-20T08:07:41.062Z,7.50
2023-04-20T08:10:10.606Z,7.40
2023-04-20T08:12:39.944Z,7.70
2023-04-20T08:15:08.873Z,7.90
2023-04-20T08:17:36.962Z,7.40
2023-04-20T08:20:06.279Z,7.30
2023-04-20T08:22:34.314Z,7.30
2023-04-20T08:25:02.353Z,7.30
2023-04-20T08:27:30.744Z,7.00
2023-04-20T08:29:58.861Z,7.30
2023-04-20T08:32:27.145Z,6.90
2023-04-20T08:34:55.878Z,7.90
2023-04-20T08:37:24.045Z,7.70
2023-04-20T08:39:51.988Z,8.10
2023-04-20T08:42:20.197Z,7.70
2023-04-20T08:44:48.409Z,7.60
2023-04-20T08:47:16.491Z,7.10
2023-04-20T08:49:44.966Z,7.10
2023-04-20T08:52:13.286Z,7.20
2023-04-20T08:54:55.262Z,7.30
2023-04-20T08:57:25.106Z,6.80
2023-04-20T08:59:53.679Z,6.80
2023-04-20T09:02:22.884Z,6.90
2023-04-20T09:05:01.623Z,7.00
2023-04-20T09:07:30.075Z,6.90
2023-04-20T09:10:00.595Z,6.50
2023-04-20T09:12:29.385Z,6.70
2023-04-20T09:14:57.466Z,6.60
2023-04-20T09:17:37.283Z,7.00
2023-04-20T09:20:07.117Z,5.80
2023-04-20T09:22:38.346Z,6.20
2023-04-20T09:25:14.363Z,6.10
2023-04-20T09:27:42.494Z,6.60
2023-04-20T09:30:11.964Z,6.30
2023-04-20T09:32:40.293Z,5.70
2023-04-20T09:35:09.724Z,6.00
2023-04-20T09:37:48.028Z,5.90
2023-04-20T09:40:16.702Z,6.00
2023-04-20T09:42:44.915Z,6.00
2023-04-20T09:45:14.751Z,6.00
2023-04-20T09:47:44.558Z,5.80
2023-04-20T09:50:24.691Z,6.00
2023-04-20T09:52:57.966Z,6.20
2023-04-20T09:55:26.711Z,5.80
2023-04-20T09:57:55.577Z,5.90
2023-04-20T10:00:23.712Z,6.00
2023-04-20T10:02:52.114Z,5.70
2023-04-20T10:05:20.338Z,6.50
2023-04-20T10:07:58.786Z,6.80
2023-04-20T10:10:27.159Z,7.10
2023-04-20T10:13:04.202Z,6.80
2023-04-20T10:15:40.822Z,6.50
2023-04-20T10:18:25.646Z,6.60
2023-04-20T10:21:10.750Z,7.70
2023-04-20T10:23:52.391Z,7.30
2023-04-20T10:26:20.912Z,8.00
2023-04-20T10:28:49.431Z,7.90
2023-04-20T10:31:18.037Z,7.60
2023-04-20T10:33:53.903Z,7.80
2023-04-20T10:36:31.869Z,7.30
2023-04-20T10:39:02.761Z,7.20
2023-04-20T10:41:31.258Z,8.10
2023-04-20T10:44:09.259Z,7.60
2023-04-20T10:46:37.250Z,7.50
2023-04-20T10:49:05.192Z,7.30
2023-04-20T10:51:33.189Z,7.20
2023-04-20T10:54:10.051Z,6.90
2023-04-20T10:56:38.072Z,6.80
2023-04-20T10:59:08.263Z,7.20
2023-04-20T11:01:36.485Z,7.00
2023-04-20T11:04:05.180Z,6.90
2023-04-20T11:06:34.220Z,6.70
2023-04-20T11:09:02.402Z,6.90
2023-04-20T11:11:30.428Z,7.20
2023-04-20T11:14:08.778Z,7.00
2023-04-20T11:16:48.104Z,6.80
2023-04-20T11:19:33.243Z,7.20
2023-04-20T11:22:06.319Z,7.10
2023-04-20T11:24:34.913Z,7.20
2023-04-20T11:27:04.892Z,6.90
2023-04-20T11:29:38.917Z,6.90
2023-04-20T11:32:09.275Z,6.90
2023-04-20T11:34:39.357Z,6.50
2023-04-20T11:37:09.762Z,6.70
2023-04-20T11:39:38.270Z,6.70
2023-04-20T11:42:06.818Z,6.50
2023-04-20T11:44:36.787Z,6.80
2023-04-20T11:47:05.041Z,6.80
2023-04-20T11:49:33.037Z,7.20
2023-04-20T11:52:01.691Z,6.80
2023-04-20T11:54:32.391Z,7.20
2023-04-20T11:57:00.888Z,6.60
2023-04-20T11:59:28.821Z,7.40
2023-04-20T12:01:56.750Z,6.60
2023-04-20T12:04:25.238Z,6.90
2023-04-20T12:06:53.384Z,6.70
2023-04-20T12:09:21.682Z,6.70
2023-04-20T12:11:49.598Z,6.70
2023-04-20T12:14:17.540Z,6.40
2023-04-20T12:16:45.774Z,5.60
2023-04-20T12:19:13.830Z,5.90
2023-04-20T12:21:41.757Z,5.70
2023-04-20T12:24:09.806Z,5.70
2023-04-20T12:26:39.061Z,5.70
2023-04-20T12:29:07.687Z,5.50
2023-04-20T12:31:36.593Z,5.40
2023-04-20T12:34:04.693Z,5.60
2023-04-20T12:36:35.265Z,5.70
2023-04-20T12:39:03.796Z,6.20
2023-04-20T12:41:31.977Z,5.90
2023-04-20T12:44:00.742Z,5.70
2023-04-20T12:46:30.151Z,5.90
2023-04-20T12:48:58.158Z,6.00
2023-04-20T12:51:26.976Z,6.20
2023-04-20T12:53:54.943Z,6.10
2023-04-20T12:56:22.910Z,6.80
2023-04-20T12:58:50.852Z,6.30
2023-04-20T13:01:18.914Z,6.00
2023-04-20T13:03:47.236Z,6.20
2023-04-20T13:06:15.657Z,6.10
2023-04-20T13:08:43.629Z,6.60
2023-04-20T13:11:12.258Z,6.20
2023-04-20T13:13:40.194Z,6.60
2023-04-20T13:16:08.201Z,6.40
2023-04-20T13:18:36.319Z,6.70
2023-04-20T13:21:04.459Z,6.60
2023-04-20T13:23:32.508Z,6.60
2023-04-20T13:26:01.834Z,7.20
2023-04-20T13:28:29.947Z,6.70
2023-04-20T13:30:57.925Z,6.40
2023-04-20T13:33:26.416Z,6.70
2023-04-20T13:35:54.369Z,6.30
2023-04-20T13:38:22.349Z,6.70
2023-04-20T13:40:50.821Z,6.60
2023-04-20T13:43:21.356Z,6.80
2023-04-20T13:45:49.660Z,6.40
2023-04-20T13:48:17.686Z,6.50
2023-04-20T13:50:45.795Z,6.60
2023-04-20T13:53:13.745Z,6.30
2023-04-20T13:55:41.675Z,6.20
2023-04-20T13:58:09.611Z,6.10
2023-04-20T14:00:37.523Z,6.60
2023-04-20T14:03:06.298Z,6.10
2023-04-20T14:05:34.465Z,6.70
2023-04-20T14:08:03.943Z,6.20
2023-04-20T14:10:31.849Z,6.10
2023-04-20T14:13:03.168Z,6.00
2023-04-20T14:15:31.251Z,6.30
2023-04-20T14:18:00.568Z,6.10
2023-04-20T14:20:28.674Z,6.00
2023-04-20T14:22:56.610Z,6.50
2023-04-20T14:25:24.585Z,6.20
2023-04-20T14:27:52.616Z,5.70
2023-04-20T14:30:20.871Z,5.80
2023-04-20T14:32:57.009Z,6.10
2023-04-20T14:35:26.879Z,6.00
2023-04-20T14:37:54.849Z,5.90
2023-04-20T14:40:22.878Z,6.00
2023-04-20T14:42:50.872Z,6.00
2023-04-20T14:45:19.180Z,6.20
2023-04-20T14:47:47.265Z,6.10
2023-04-20T14:50:15.695Z,6.00
2023-04-20T14:52:43.696Z,6.10
2023-04-20T14:55:11.720Z,6.80
2023-04-20T14:57:39.649Z,6.60
2023-04-20T15:00:10.587Z,6.30
2023-04-20T15:02:39.011Z,6.40
2023-04-20T15:05:10.576Z,6.80
2023-04-20T15:07:39.319Z,7.00
2023-04-20T15:10:07.839Z,6.70
2023-04-20T15:12:35.805Z,6.70
2023-04-20T15:15:04.055Z,6.60
2023-04-20T15:17:32.046Z,6.70
2023-04-20T15:20:00.072Z,6.50
2023-04-20T15:22:28.183Z,6.60
2023-04-20T15:24:56.167Z,6.30
2023-04-20T15:27:24.124Z,6.40
2023-04-20T15:29:52.152Z,6.50
2023-04-20T15:32:20.333Z,6.70
2023-04-20T15:34:48.388Z,6.80
2023-04-20T15:37:16.506Z,6.90
2023-04-20T15:39:45.187Z,7.10
2023-04-20T15:42:13.534Z,6.90
2023-04-20T15:44:41.639Z,6.90
2023-04-20T15:47:09.692Z,6.90
2023-04-20T15:49:40.785Z,6.80
2023-04-20T15:52:08.898Z,7.00
2023-04-20T15:54:37.705Z,7.10
2023-04-20T15:57:05.872Z,6.90
2023-04-20T15:59:33.967Z,7.60
2023-04-20T16:02:02.071Z,7.70
2023-04-20T16:04:30.295Z,7.30
2023-04-20T16:06:58.461Z,7.60
2023-04-20T16:09:26.538Z,7.70
2023-04-20T16:11:54.468Z,7.60
2023-04-20T16:14:22.523Z,8.00
2023-04-20T16:16:50.959Z,7.50
2023-04-20T16:19:18.926Z,8.00
2023-04-20T16:21:46.896Z,8.00
2023-04-20T16:24:14.895Z,8.60
2023-04-20T16:26:42.920Z,9.30
2023-04-20T16:29:11.096Z,10.60
2023-04-20T16:31:39.232Z,13.70
2023-04-20T16:34:07.255Z,17.40
2023-04-20T16:36:35.203Z,17.50
2023-04-20T16:39:06.155Z,14.40
2023-04-20T16:41:34.113Z,13.50
2023-04-20T16:44:02.966Z,10.80
2023-04-20T16:46:32.105Z,8.90
2023-04-20T16:49:00.272Z,7.10
2023-04-20T16:51:29.477Z,7.50
2023-04-20T16:53:57.387Z,6.80
2023-04-20T16:56:25.769Z,7.00
2023-04-20T16:58:54.197Z,7.00
2023-04-20T17:01:22.199Z,6.80
2023-04-20T17:03:50.307Z,7.20
2023-04-20T17:06:18.464Z,6.60
2023-04-20T17:08:47.395Z,6.70
2023-04-20T17:11:16.283Z,6.40
2023-04-20T17:13:44.354Z,6.90
2023-04-20T17:16:12.343Z,7.20
2023-04-20T17:18:41.911Z,6.70
2023-04-20T17:21:10.207Z,7.10
2023-04-20T17:23:38.177Z,6.90
2023-04-20T17:26:06.292Z,7.40
2023-04-20T17:28:34.222Z,6.90
2023-04-20T17:31:02.387Z,7.00
2023-04-20T17:33:30.836Z,7.00
2023-04-20T17:36:00.280Z,7.00
2023-04-20T17:38:28.238Z,6.70
2023-04-20T17:40:56.307Z,6.40
2023-04-20T17:43:24.480Z,6.00
2023-04-20T17:45:52.580Z,6.40
2023-04-20T17:48:20.620Z,6.50
2023-04-20T17:50:50.000Z,6.30
2023-04-20T17:53:17.945Z,6.10
2023-04-20T17:55:45.993Z,6.30
2023-04-20T17:58:14.023Z,6.50
2023-04-20T18:00:43.067Z,6.30
2023-04-20T18:03:11.559Z,6.30
2023-04-20T18:05:40.327Z,6.40
2023-04-20T18:08:10.364Z,7.00
2023-04-20T18:10:38.442Z,6.80
2023-04-20T18:13:06.556Z,6.30
2023-04-20T18:15:34.574Z,6.20
2023-04-20T18:18:02.662Z,6.50
2023-04-20T18:20:32.483Z,6.20
2023-04-20T18:23:00.775Z,6.30
2023-04-20T18:25:28.839Z,6.20
2023-04-20T18:27:56.827Z,6.20
2023-04-20T18:30:24.915Z,6.50
2023-04-20T18:32:53.916Z,5.80
2023-04-20T18:35:22.055Z,6.20
2023-04-20T18:37:51.141Z,6.10
2023-04-20T18:40:19.524Z,6.20
2023-04-20T18:42:47.502Z,6.30
2023-04-20T18:45:16.260Z,5.90
2023-04-20T18:47:44.396Z,5.80
2023-04-20T18:50:12.454Z,6.10
2023-04-20T18:52:40.482Z,6.10
2023-04-20T18:55:09.556Z,6.10
2023-04-20T18:57:37.548Z,6.00
2023-04-20T19:00:08.357Z,6.40
2023-04-20T19:02:36.525Z,5.80
2023-04-20T19:05:04.893Z,5.90
2023-04-20T19:07:32.902Z,6.10
2023-04-20T19:10:00.861Z,5.70
2023-04-20T19:12:28.849Z,5.80
2023-04-20T19:14:56.808Z,5.90
2023-04-20T19:17:24.823Z,5.70
2023-04-20T19:19:52.886Z,5.70
2023-04-20T19:22:20.947Z,5.60
2023-04-20T19:24:49.155Z,6.00
2023-04-20T19:27:18.386Z,5.90
2023-04-20T19:29:46.383Z,5.40
2023-04-20T19:32:14.359Z,5.80
2023-04-20T19:34:42.398Z,5.50
2023-04-20T19:37:10.695Z,5.70
2023-04-20T19:39:38.600Z,5.90
2023-04-20T19:42:07.831Z,5.50
2023-04-20T19:44:36.108Z,6.10
2023-04-20T19:47:04.282Z,6.00
2023-04-20T19:49:32.255Z,6.20
2023-04-20T19:52:00.346Z,6.40
2023-04-20T19:54:28.392Z,6.40
2023-04-20T19:56:56.334Z,6.20
2023-04-20T19:59:24.431Z,6.00
2023-04-20T20:01:52.468Z,5.60
2023-04-20T20:04:21.156Z,6.00
2023-04-20T20:06:50.836Z,6.00
2023-04-20T20:09:21.584Z,5.80
2023-04-20T20:11:51.284Z,6.00
2023-04-20T20:14:19.885Z,6.10
2023-04-20T20:16:47.853Z,6.00
2023-04-20T20:19:18.345Z,5.80
2023-04-20T20:21:46.501Z,5.80
2023-04-20T20:24:14.770Z,5.70
2023-04-20T20:26:42.727Z,5.90
2023-04-20T20:29:10.691Z,5.60
2023-04-20T20:31:38.685Z,6.10
2023-04-20T20:34:08.966Z,6.30
2023-04-20T20:36:37.360Z,6.40
2023-04-20T20:39:06.984Z,5.80
2023-04-20T20:41:34.939Z,6.20
2023-04-20T20:44:02.961Z,6.40
2023-04-20T20:46:31.956Z,6.10
2023-04-20T20:49:01.177Z,6.00
2023-04-20T20:51:29.573Z,6.40
2023-04-20T20:53:58.308Z,6.00
2023-04-20T20:56:27.041Z,6.50
2023-04-20T20:58:55.015Z,6.20
2023-04-20T21:01:23.149Z,6.40
2023-04-20T21:03:51.525Z,6.60
2023-04-20T21:06:19.735Z,6.40
2023-04-20T21:08:48.954Z,6.60
2023-04-20T21:11:17.045Z,6.50
2023-04-20T21:13:45.193Z,6.70
2023-04-20T21:16:13.368Z,6.90
2023-04-20T21:18:41.601Z,6.50
2023-04-20T21:21:16.781Z,6.70
2023-04-20T21:23:44.836Z,6.90
2023-04-20T21:26:12.821Z,6.80
2023-04-20T21:28:40.973Z,6.80
2023-04-20T21:31:09.051Z,7.20
2023-04-20T21:33:37.141Z,7.00
2023-04-20T21:36:05.579Z,7.20
2023-04-20T21:38:33.623Z,7.10
2023-04-20T21:41:01.597Z,7.50
2023-04-20T21:43:29.533Z,7.30
2023-04-20T21:45:57.557Z,7.20
2023-04-20T21:48:25.649Z,7.50
2023-04-20T21:50:53.713Z,7.40
2023-04-20T21:53:21.789Z,7.60
2023-04-20T21:55:49.857Z,7.40
2023-04-20T21:58:17.820Z,8.00
2023-04-20T22:00:45.819Z,7.30
2023-04-20T22:03:14.248Z,6.80
2023-04-20T22:05:42.688Z,7.20
2023-04-20T22:08:10.923Z,7.50
2023-04-20T22:10:38.889Z,7.30
2023-04-20T22:13:07.484Z,7.50
2023-04-20T22:15:36.269Z,7.10
2023-04-20T22:18:05.703Z,6.90
2023-04-20T22:20:33.882Z,7.20
2023-04-20T22:23:01.998Z,7.10
2023-04-20T22:25:30.176Z,7.00
2023-04-20T22:27:58.172Z,7.50
2023-04-20T22:30:26.433Z,7.10
2023-04-20T22:32:54.479Z,7.20
2023-04-20T22:35:22.566Z,7.10
2023-04-20T22:37:50.637Z,7.10
2023-04-20T22:40:18.630Z,7.10
2023-04-20T22:42:46.679Z,7.10
2023-04-20T22:45:14.931Z,7.10
2023-04-20T22:47:42.950Z,7.20
2023-04-20T22:50:12.523Z,7.50
2023-04-20T22:52:40.630Z,7.60
2023-04-20T22:55:10.515Z,7.30
2023-04-20T22:57:39.254Z,7.60
2023-04-20T23:00:10.725Z,7.90
2023-04-20T23:02:39.109Z,8.20
2023-04-20T23:05:07.677Z,8.10
2023-04-20T23:07:35.938Z,8.10
2023-04-20T23:10:04.718Z,8.20
2023-04-20T23:12:33.552Z,8.60
2023-04-20T23:15:01.517Z,8.50
2023-04-20T23:17:29.622Z,8.70
2023-04-20T23:19:57.721Z,8.60
2023-04-20T23:22:26.140Z,8.60
2023-04-20T23:24:54.221Z,8.70
2023-04-20T23:27:22.178Z,8.50
2023-04-20T23:29:50.156Z,8.50
2023-04-20T23:32:18.228Z,8.50
2023-04-20T23:34:46.285Z,8.30
2023-04-20T23:37:14.255Z,8.00
2023-04-20T23:39:42.228Z,8.40
2023-04-20T23:42:10.201Z,8.30
2023-04-20T23:44:38.264Z,8.10
2023-04-20T23:47:06.358Z,7.70
2023-04-20T23:49:34.309Z,7.70
2023-04-20T23:52:02.260Z,7.70
2023-04-20T23:54:32.620Z,7.70
2023-04-20T23:57:01.379Z,7.30
2023-04-20T23:59:29.345Z,7.10
